sensor_id;sensor_type;location;lat;lon;timestamp;P1;durP1;ratioP1;P2;durP2;ratioP2
5831;SDS011;50943;51.448;7.646;2023-04-25T00:01:53;18.67;;;6.40;;
5831;SDS011;50943;51.448;7.646;2023-04-25T00:04:19;25.33;;;6.40;;
5831;SDS011;50943;51.448;7.646;2023-04-25T00:06:47;16.17;;;6.20;;
5831;SDS011;50943;51.448;7.646;2023-04-25T00:09:14;22.87;;;6.77;;
5831;SDS011;50943;51.448;7.646;2023-04-25T00:11:41;20.67;;;7.03;;
5831;SDS011;50943;51.448;7.646;2023-04-25T00:14:08;21.53;;;6.70;;
5831;SDS011;50943;51.448;7.646;2023-04-25T00:16:35;20.13;;;6.90;;
5831;SDS011;50943;51.448;7.646;2023-04-25T00:19:02;18.93;;;6.67;;
5831;SDS011;50943;51.448;7.646;2023-04-25T00:21:29;19.63;;;7.60;;
5831;SDS011;50943;51.448;7.646;2023-04-25T00:23:56;27.03;;;8.43;;
5831;SDS011;50943;51.448;7.646;2023-04-25T00:26:23;16.80;;;6.13;;
5831;SDS011;50943;51.448;7.646;2023-04-25T00:28:51;14.37;;;6.00;;
5831;SDS011;50943;51.448;7.646;2023-04-25T00:31:17;14.23;;;5.60;;
5831;SDS011;50943;51.448;7.646;2023-04-25T00:33:44;16.00;;;6.37;;
5831;SDS011;50943;51.448;7.646;2023-04-25T00:36:11;19.53;;;6.07;;
5831;SDS011;50943;51.448;7.646;2023-04-25T00:38:38;17.23;;;6.40;;
5831;SDS011;50943;51.448;7.646;2023-04-25T00:41:05;23.73;;;6.57;;
5831;SDS011;50943;51.448;7.646;2023-04-25T00:43:32;18.67;;;6.87;;
5831;SDS011;50943;51.448;7.646;2023-04-25T00:46:00;22.30;;;5.77;;
5831;SDS011;50943;51.448;7.646;2023-04-25T00:48:27;24.80;;;6.87;;
5831;SDS011;50943;51.448;7.646;2023-04-25T00:50:55;19.33;;;6.23;;
5831;SDS011;50943;51.448;7.646;2023-04-25T00:53:24;31.17;;;7.67;;
5831;SDS011;50943;51.448;7.646;2023-04-25T00:55:51;11.50;;;6.20;;
5831;SDS011;50943;51.448;7.646;2023-04-25T00:58:19;20.67;;;7.50;;
5831;SDS011;50943;51.448;7.646;2023-04-25T01:00:47;16.03;;;7.30;;
5831;SDS011;50943;51.448;7.646;2023-04-25T01:03:17;14.17;;;7.50;;
5831;SDS011;50943;51.448;7.646;2023-04-25T01:05:44;23.50;;;7.07;;
5831;SDS011;50943;51.448;7.646;2023-04-25T01:08:12;21.43;;;7.93;;
5831;SDS011;50943;51.448;7.646;2023-04-25T01:10:39;14.70;;;7.30;;
5831;SDS011;50943;51.448;7.646;2023-04-25T01:13:05;20.67;;;8.00;;
5831;SDS011;50943;51.448;7.646;2023-04-25T01:15:32;25.53;;;8.47;;
5831;SDS011;50943;51.448;7.646;2023-04-25T01:18:00;20.10;;;7.90;;
5831;SDS011;50943;51.448;7.646;2023-04-25T01:20:28;28.23;;;8.03;;
5831;SDS011;50943;51.448;7.646;2023-04-25T01:22:56;17.20;;;7.83;;
5831;SDS011;50943;51.448;7.646;2023-04-25T01:25:23;19.53;;;8.00;;
5831;SDS011;50943;51.448;7.646;2023-04-25T01:27:50;18.70;;;8.83;;
5831;SDS011;50943;51.448;7.646;2023-04-25T01:30:17;15.43;;;8.33;;
5831;SDS011;50943;51.448;7.646;2023-04-25T01:32:44;15.23;;;7.37;;
5831;SDS011;50943;51.448;7.646;2023-04-25T01:35:12;15.53;;;8.10;;
5831;SDS011;50943;51.448;7.646;2023-04-25T01:37:39;18.37;;;8.00;;
5831;SDS011;50943;51.448;7.646;2023-04-25T01:40:08;17.70;;;8.00;;
5831;SDS011;50943;51.448;7.646;2023-04-25T01:42:36;19.30;;;7.07;;
5831;SDS011;50943;51.448;7.646;2023-04-25T01:45:05;17.07;;;8.30;;
5831;SDS011;50943;51.448;7.646;2023-04-25T01:47:33;15.03;;;7.07;;
5831;SDS011;50943;51.448;7.646;2023-04-25T01:50:00;17.20;;;7.50;;
5831;SDS011;50943;51.448;7.646;2023-04-25T01:52:30;23.60;;;8.40;;
5831;SDS011;50943;51.448;7.646;2023-04-25T01:54:56;20.57;;;9.10;;
5831;SDS011;50943;51.448;7.646;2023-04-25T01:57:25;17.97;;;7.87;;
5831;SDS011;50943;51.448;7.646;2023-04-25T01:59:51;22.87;;;8.97;;
5831;SDS011;50943;51.448;7.646;2023-04-25T02:02:19;16.73;;;8.67;;
5831;SDS011;50943;51.448;7.646;2023-04-25T02:04:46;24.30;;;10.60;;
5831;SDS011;50943;51.448;7.646;2023-04-25T02:07:12;19.37;;;9.00;;
5831;SDS011;50943;51.448;7.646;2023-04-25T02:09:39;18.63;;;8.43;;
5831;SDS011;50943;51.448;7.646;2023-04-25T02:12:07;22.07;;;9.83;;
5831;SDS011;50943;51.448;7.646;2023-04-25T02:14:35;18.43;;;8.83;;
5831;SDS011;50943;51.448;7.646;2023-04-25T02:17:10;16.17;;;9.10;;
5831;SDS011;50943;51.448;7.646;2023-04-25T02:19:38;17.37;;;8.83;;
5831;SDS011;50943;51.448;7.646;2023-04-25T02:22:05;19.07;;;9.63;;
5831;SDS011;50943;51.448;7.646;2023-04-25T02:24:31;17.93;;;8.70;;
5831;SDS011;50943;51.448;7.646;2023-04-25T02:26:59;24.93;;;10.10;;
5831;SDS011;50943;51.448;7.646;2023-04-25T02:29:26;20.63;;;10.20;;
5831;SDS011;50943;51.448;7.646;2023-04-25T02:31:54;22.70;;;9.80;;
5831;SDS011;50943;51.448;7.646;2023-04-25T02:34:21;20.90;;;10.70;;
5831;SDS011;50943;51.448;7.646;2023-04-25T02:36:48;24.40;;;10.47;;
5831;SDS011;50943;51.448;7.646;2023-04-25T02:39:14;27.03;;;11.70;;
5831;SDS011;50943;51.448;7.646;2023-04-25T02:41:41;32.60;;;11.80;;
5831;SDS011;50943;51.448;7.646;2023-04-25T02:44:07;23.77;;;11.20;;
5831;SDS011;50943;51.448;7.646;2023-04-25T02:46:35;35.63;;;13.30;;
5831;SDS011;50943;51.448;7.646;2023-04-25T02:49:02;25.93;;;11.50;;
5831;SDS011;50943;51.448;7.646;2023-04-25T02:51:30;24.77;;;11.37;;
5831;SDS011;50943;51.448;7.646;2023-04-25T02:53:57;26.90;;;11.00;;
5831;SDS011;50943;51.448;7.646;2023-04-25T02:56:24;19.90;;;10.67;;
5831;SDS011;50943;51.448;7.646;2023-04-25T02:58:53;27.60;;;11.57;;
5831;SDS011;50943;51.448;7.646;2023-04-25T03:01:20;24.40;;;10.77;;
5831;SDS011;50943;51.448;7.646;2023-04-25T03:03:46;23.07;;;10.00;;
5831;SDS011;50943;51.448;7.646;2023-04-25T03:06:14;22.17;;;10.47;;
5831;SDS011;50943;51.448;7.646;2023-04-25T03:08:41;23.70;;;11.90;;
5831;SDS011;50943;51.448;7.646;2023-04-25T03:11:08;26.23;;;11.70;;
5831;SDS011;50943;51.448;7.646;2023-04-25T03:13:35;26.00;;;11.40;;
5831;SDS011;50943;51.448;7.646;2023-04-25T03:16:02;25.60;;;10.87;;
5831;SDS011;50943;51.448;7.646;2023-04-25T03:18:28;27.60;;;11.83;;
5831;SDS011;50943;51.448;7.646;2023-04-25T03:20:55;26.23;;;11.80;;
5831;SDS011;50943;51.448;7.646;2023-04-25T03:23:25;27.93;;;11.90;;
5831;SDS011;50943;51.448;7.646;2023-04-25T03:25:52;20.30;;;10.80;;
5831;SDS011;50943;51.448;7.646;2023-04-25T03:28:18;30.43;;;13.00;;
5831;SDS011;50943;51.448;7.646;2023-04-25T03:30:45;31.87;;;13.80;;
5831;SDS011;50943;51.448;7.646;2023-04-25T03:33:11;32.90;;;14.60;;
5831;SDS011;50943;51.448;7.646;2023-04-25T03:35:38;28.60;;;13.73;;
5831;SDS011;50943;51.448;7.646;2023-04-25T03:38:04;28.00;;;13.33;;
5831;SDS011;50943;51.448;7.646;2023-04-25T03:40:32;29.77;;;13.13;;
5831;SDS011;50943;51.448;7.646;2023-04-25T03:42:59;24.00;;;12.13;;
5831;SDS011;50943;51.448;7.646;2023-04-25T03:45:25;26.43;;;13.10;;
5831;SDS011;50943;51.448;7.646;2023-04-25T03:47:52;34.40;;;12.77;;
5831;SDS011;50943;51.448;7.646;2023-04-25T03:50:19;30.37;;;12.00;;
5831;SDS011;50943;51.448;7.646;2023-04-25T03:52:46;24.03;;;11.80;;
5831;SDS011;50943;51.448;7.646;2023-04-25T03:55:13;23.20;;;11.83;;
5831;SDS011;50943;51.448;7.646;2023-04-25T03:57:41;28.10;;;13.30;;
5831;SDS011;50943;51.448;7.646;2023-04-25T04:00:08;27.73;;;11.40;;
5831;SDS011;50943;51.448;7.646;2023-04-25T04:02:35;35.90;;;12.27;;
5831;SDS011;50943;51.448;7.646;2023-04-25T04:05:02;28.30;;;11.43;;
5831;SDS011;50943;51.448;7.646;2023-04-25T04:07:30;26.97;;;10.80;;
5831;SDS011;50943;51.448;7.646;2023-04-25T04:10:01;25.60;;;10.90;;
5831;SDS011;50943;51.448;7.646;2023-04-25T04:12:30;26.30;;;10.37;;
5831;SDS011;50943;51.448;7.646;2023-04-25T04:14:58;28.83;;;10.90;;
5831;SDS011;50943;51.448;7.646;2023-04-25T04:17:24;21.03;;;9.90;;
5831;SDS011;50943;51.448;7.646;2023-04-25T04:19:51;30.43;;;10.57;;
5831;SDS011;50943;51.448;7.646;2023-04-25T04:22:18;22.63;;;9.43;;
5831;SDS011;50943;51.448;7.646;2023-04-25T04:24:45;21.40;;;9.40;;
5831;SDS011;50943;51.448;7.646;2023-04-25T04:27:12;28.77;;;8.83;;
5831;SDS011;50943;51.448;7.646;2023-04-25T04:29:38;27.67;;;9.43;;
5831;SDS011;50943;51.448;7.646;2023-04-25T04:32:06;29.87;;;9.73;;
5831;SDS011;50943;51.448;7.646;2023-04-25T04:34:34;24.10;;;9.93;;
5831;SDS011;50943;51.448;7.646;2023-04-25T04:37:01;14.83;;;7.70;;
5831;SDS011;50943;51.448;7.646;2023-04-25T04:39:28;22.60;;;8.90;;
5831;SDS011;50943;51.448;7.646;2023-04-25T04:41:55;30.33;;;7.83;;
5831;SDS011;50943;51.448;7.646;2023-04-25T04:44:21;19.27;;;9.30;;
5831;SDS011;50943;51.448;7.646;2023-04-25T04:46:48;26.47;;;9.70;;
5831;SDS011;50943;51.448;7.646;2023-04-25T04:49:16;18.80;;;4.30;;
5831;SDS011;50943;51.448;7.646;2023-04-25T04:51:43;16.63;;;5.07;;
5831;SDS011;50943;51.448;7.646;2023-04-25T04:54:10;12.43;;;4.20;;
5831;SDS011;50943;51.448;7.646;2023-04-25T04:56:37;7.10;;;3.50;;
5831;SDS011;50943;51.448;7.646;2023-04-25T04:59:04;9.63;;;3.80;;
5831;SDS011;50943;51.448;7.646;2023-04-25T05:01:30;11.60;;;3.40;;
5831;SDS011;50943;51.448;7.646;2023-04-25T05:03:57;9.07;;;3.07;;
5831;SDS011;50943;51.448;7.646;2023-04-25T05:06:26;11.43;;;3.47;;
5831;SDS011;50943;51.448;7.646;2023-04-25T05:08:55;8.90;;;3.73;;
5831;SDS011;50943;51.448;7.646;2023-04-25T05:11:22;14.67;;;2.90;;
5831;SDS011;50943;51.448;7.646;2023-04-25T05:13:51;13.70;;;3.90;;
5831;SDS011;50943;51.448;7.646;2023-04-25T05:16:18;11.40;;;3.60;;
5831;SDS011;50943;51.448;7.646;2023-04-25T05:18:45;10.00;;;3.40;;
5831;SDS011;50943;51.448;7.646;2023-04-25T05:21:12;8.63;;;3.37;;
5831;SDS011;50943;51.448;7.646;2023-04-25T05:23:40;10.63;;;3.93;;
5831;SDS011;50943;51.448;7.646;2023-04-25T05:26:07;6.67;;;3.27;;
5831;SDS011;50943;51.448;7.646;2023-04-25T05:28:38;11.90;;;3.60;;
5831;SDS011;50943;51.448;7.646;2023-04-25T05:31:05;9.03;;;3.20;;
5831;SDS011;50943;51.448;7.646;2023-04-25T05:33:32;12.87;;;4.00;;
5831;SDS011;50943;51.448;7.646;2023-04-25T05:35:58;8.73;;;3.20;;
5831;SDS011;50943;51.448;7.646;2023-04-25T05:38:27;15.30;;;3.30;;
5831;SDS011;50943;51.448;7.646;2023-04-25T05:40:56;13.70;;;3.90;;
5831;SDS011;50943;51.448;7.646;2023-04-25T05:43:22;8.90;;;3.40;;
5831;SDS011;50943;51.448;7.646;2023-04-25T05:45:49;9.50;;;3.40;;
5831;SDS011;50943;51.448;7.646;2023-04-25T05:48:15;12.27;;;3.50;;
5831;SDS011;50943;51.448;7.646;2023-04-25T05:50:42;10.53;;;3.20;;
5831;SDS011;50943;51.448;7.646;2023-04-25T05:53:08;13.50;;;3.60;;
5831;SDS011;50943;51.448;7.646;2023-04-25T05:55:35;9.77;;;4.07;;
5831;SDS011;50943;51.448;7.646;2023-04-25T05:58:04;8.87;;;3.30;;
5831;SDS011;50943;51.448;7.646;2023-04-25T06:00:31;12.60;;;3.70;;
5831;SDS011;50943;51.448;7.646;2023-04-25T06:02:59;11.40;;;3.17;;
5831;SDS011;50943;51.448;7.646;2023-04-25T06:05:26;10.23;;;3.63;;
5831;SDS011;50943;51.448;7.646;2023-04-25T06:07:53;17.30;;;3.90;;
5831;SDS011;50943;51.448;7.646;2023-04-25T06:10:19;15.23;;;4.60;;
5831;SDS011;50943;51.448;7.646;2023-04-25T06:12:47;19.27;;;3.40;;
5831;SDS011;50943;51.448;7.646;2023-04-25T06:15:15;14.93;;;4.30;;
5831;SDS011;50943;51.448;7.646;2023-04-25T06:17:42;9.83;;;3.57;;
5831;SDS011;50943;51.448;7.646;2023-04-25T06:20:09;15.33;;;3.80;;
5831;SDS011;50943;51.448;7.646;2023-04-25T06:22:37;13.40;;;4.90;;
5831;SDS011;50943;51.448;7.646;2023-04-25T06:25:04;14.07;;;4.00;;
5831;SDS011;50943;51.448;7.646;2023-04-25T06:27:32;10.20;;;4.00;;
5831;SDS011;50943;51.448;7.646;2023-04-25T06:29:58;16.70;;;4.33;;
5831;SDS011;50943;51.448;7.646;2023-04-25T06:32:27;13.63;;;4.57;;
5831;SDS011;50943;51.448;7.646;2023-04-25T06:34:54;22.60;;;5.00;;
5831;SDS011;50943;51.448;7.646;2023-04-25T06:37:21;18.17;;;5.20;;
5831;SDS011;50943;51.448;7.646;2023-04-25T06:39:48;12.10;;;4.30;;
5831;SDS011;50943;51.448;7.646;2023-04-25T06:42:14;20.33;;;5.50;;
5831;SDS011;50943;51.448;7.646;2023-04-25T06:44:41;15.27;;;5.80;;
5831;SDS011;50943;51.448;7.646;2023-04-25T06:47:07;21.00;;;5.77;;
5831;SDS011;50943;51.448;7.646;2023-04-25T06:49:35;16.27;;;5.20;;
5831;SDS011;50943;51.448;7.646;2023-04-25T06:52:02;16.67;;;4.80;;
5831;SDS011;50943;51.448;7.646;2023-04-25T06:54:29;18.37;;;5.17;;
5831;SDS011;50943;51.448;7.646;2023-04-25T06:56:55;12.60;;;5.10;;
5831;SDS011;50943;51.448;7.646;2023-04-25T06:59:22;14.80;;;4.90;;
5831;SDS011;50943;51.448;7.646;2023-04-25T07:01:49;17.73;;;5.20;;
5831;SDS011;50943;51.448;7.646;2023-04-25T07:04:16;18.10;;;5.20;;
5831;SDS011;50943;51.448;7.646;2023-04-25T07:06:43;11.57;;;3.93;;
5831;SDS011;50943;51.448;7.646;2023-04-25T07:09:12;10.57;;;4.50;;
5831;SDS011;50943;51.448;7.646;2023-04-25T07:11:39;15.17;;;5.67;;
5831;SDS011;50943;51.448;7.646;2023-04-25T07:14:05;27.87;;;4.90;;
5831;SDS011;50943;51.448;7.646;2023-04-25T07:16:32;12.93;;;4.53;;
5831;SDS011;50943;51.448;7.646;2023-04-25T07:18:58;20.70;;;5.37;;
5831;SDS011;50943;51.448;7.646;2023-04-25T07:21:25;26.50;;;6.13;;
5831;SDS011;50943;51.448;7.646;2023-04-25T07:23:53;17.27;;;5.93;;
5831;SDS011;50943;51.448;7.646;2023-04-25T07:26:21;18.13;;;6.23;;
5831;SDS011;50943;51.448;7.646;2023-04-25T07:28:48;14.77;;;4.07;;
5831;SDS011;50943;51.448;7.646;2023-04-25T07:31:16;18.03;;;4.40;;
5831;SDS011;50943;51.448;7.646;2023-04-25T07:33:43;16.60;;;5.10;;
5831;SDS011;50943;51.448;7.646;2023-04-25T07:36:09;16.17;;;4.10;;
5831;SDS011;50943;51.448;7.646;2023-04-25T07:38:37;13.57;;;3.53;;
5831;SDS011;50943;51.448;7.646;2023-04-25T07:41:05;12.70;;;3.53;;
5831;SDS011;50943;51.448;7.646;2023-04-25T07:43:31;14.40;;;3.93;;
5831;SDS011;50943;51.448;7.646;2023-04-25T07:45:58;21.23;;;3.60;;
5831;SDS011;50943;51.448;7.646;2023-04-25T07:48:25;18.60;;;3.97;;
5831;SDS011;50943;51.448;7.646;2023-04-25T07:50:51;17.47;;;3.80;;
5831;SDS011;50943;51.448;7.646;2023-04-25T07:53:18;26.17;;;4.33;;
5831;SDS011;50943;51.448;7.646;2023-04-25T07:55:44;13.43;;;3.17;;
5831;SDS011;50943;51.448;7.646;2023-04-25T07:58:12;14.87;;;3.70;;
5831;SDS011;50943;51.448;7.646;2023-04-25T08:00:40;22.10;;;4.00;;
5831;SDS011;50943;51.448;7.646;2023-04-25T08:03:08;17.33;;;3.90;;
5831;SDS011;50943;51.448;7.646;2023-04-25T08:05:35;14.73;;;3.20;;
5831;SDS011;50943;51.448;7.646;2023-04-25T08:08:02;11.93;;;3.70;;
5831;SDS011;50943;51.448;7.646;2023-04-25T08:10:31;15.33;;;4.30;;
5831;SDS011;50943;51.448;7.646;2023-04-25T08:12:58;17.10;;;4.30;;
5831;SDS011;50943;51.448;7.646;2023-04-25T08:15:26;15.50;;;3.83;;
5831;SDS011;50943;51.448;7.646;2023-04-25T08:17:55;18.10;;;3.77;;
5831;SDS011;50943;51.448;7.646;2023-04-25T08:20:24;11.80;;;3.77;;
5831;SDS011;50943;51.448;7.646;2023-04-25T08:22:51;18.37;;;4.17;;
5831;SDS011;50943;51.448;7.646;2023-04-25T08:25:17;12.17;;;3.87;;
5831;SDS011;50943;51.448;7.646;2023-04-25T08:27:44;14.33;;;3.40;;
5831;SDS011;50943;51.448;7.646;2023-04-25T08:30:11;22.43;;;3.40;;
5831;SDS011;50943;51.448;7.646;2023-04-25T08:32:42;14.60;;;3.80;;
5831;SDS011;50943;51.448;7.646;2023-04-25T08:35:09;19.30;;;4.10;;
5831;SDS011;50943;51.448;7.646;2023-04-25T08:37:36;13.10;;;3.03;;
5831;SDS011;50943;51.448;7.646;2023-04-25T08:40:03;20.13;;;3.37;;
5831;SDS011;50943;51.448;7.646;2023-04-25T08:42:33;15.30;;;3.60;;
5831;SDS011;50943;51.448;7.646;2023-04-25T08:45:01;16.57;;;3.27;;
5831;SDS011;50943;51.448;7.646;2023-04-25T08:47:28;12.57;;;3.30;;
5831;SDS011;50943;51.448;7.646;2023-04-25T08:49:57;7.00;;;2.70;;
5831;SDS011;50943;51.448;7.646;2023-04-25T08:52:25;13.93;;;3.03;;
5831;SDS011;50943;51.448;7.646;2023-04-25T08:54:54;12.83;;;2.63;;
5831;SDS011;50943;51.448;7.646;2023-04-25T08:57:21;7.63;;;2.70;;
5831;SDS011;50943;51.448;7.646;2023-04-25T08:59:48;10.57;;;3.00;;
5831;SDS011;50943;51.448;7.646;2023-04-25T09:02:15;16.37;;;2.80;;
5831;SDS011;50943;51.448;7.646;2023-04-25T09:04:44;12.30;;;3.20;;
5831;SDS011;50943;51.448;7.646;2023-04-25T09:07:12;16.33;;;2.53;;
5831;SDS011;50943;51.448;7.646;2023-04-25T09:09:40;12.03;;;3.13;;
5831;SDS011;50943;51.448;7.646;2023-04-25T09:12:07;10.73;;;2.93;;
5831;SDS011;50943;51.448;7.646;2023-04-25T09:14:34;16.30;;;2.80;;
5831;SDS011;50943;51.448;7.646;2023-04-25T09:17:02;9.87;;;3.57;;
5831;SDS011;50943;51.448;7.646;2023-04-25T09:19:30;10.20;;;3.37;;
5831;SDS011;50943;51.448;7.646;2023-04-25T09:21:58;9.97;;;2.27;;
5831;SDS011;50943;51.448;7.646;2023-04-25T09:24:34;8.27;;;1.97;;
5831;SDS011;50943;51.448;7.646;2023-04-25T09:27:05;8.87;;;2.13;;
5831;SDS011;50943;51.448;7.646;2023-04-25T09:29:33;8.97;;;2.43;;
5831;SDS011;50943;51.448;7.646;2023-04-25T09:32:10;8.33;;;1.83;;
5831;SDS011;50943;51.448;7.646;2023-04-25T09:34:42;10.67;;;2.30;;
5831;SDS011;50943;51.448;7.646;2023-04-25T09:37:10;7.83;;;2.23;;
5831;SDS011;50943;51.448;7.646;2023-04-25T09:39:38;8.23;;;2.07;;
5831;SDS011;50943;51.448;7.646;2023-04-25T09:42:06;11.50;;;2.77;;
5831;SDS011;50943;51.448;7.646;2023-04-25T09:44:35;8.87;;;2.40;;
5831;SDS011;50943;51.448;7.646;2023-04-25T09:47:02;7.40;;;1.80;;
5831;SDS011;50943;51.448;7.646;2023-04-25T09:49:29;11.83;;;2.23;;
5831;SDS011;50943;51.448;7.646;2023-04-25T09:51:56;8.30;;;3.60;;
5831;SDS011;50943;51.448;7.646;2023-04-25T09:54:23;9.03;;;2.20;;
5831;SDS011;50943;51.448;7.646;2023-04-25T09:56:52;6.80;;;2.40;;
5831;SDS011;50943;51.448;7.646;2023-04-25T09:59:20;7.27;;;2.10;;
5831;SDS011;50943;51.448;7.646;2023-04-25T10:01:47;7.50;;;1.93;;
5831;SDS011;50943;51.448;7.646;2023-04-25T10:04:16;10.33;;;2.43;;
5831;SDS011;50943;51.448;7.646;2023-04-25T10:06:48;9.20;;;2.10;;
5831;SDS011;50943;51.448;7.646;2023-04-25T10:09:15;10.10;;;2.50;;
5831;SDS011;50943;51.448;7.646;2023-04-25T10:11:43;7.47;;;2.17;;
5831;SDS011;50943;51.448;7.646;2023-04-25T10:14:12;10.97;;;2.10;;
5831;SDS011;50943;51.448;7.646;2023-04-25T10:16:39;6.80;;;2.30;;
5831;SDS011;50943;51.448;7.646;2023-04-25T10:19:06;10.17;;;2.10;;
5831;SDS011;50943;51.448;7.646;2023-04-25T10:21:33;10.87;;;2.60;;
5831;SDS011;50943;51.448;7.646;2023-04-25T10:24:02;8.83;;;2.30;;
5831;SDS011;50943;51.448;7.646;2023-04-25T10:26:29;7.00;;;2.30;;
5831;SDS011;50943;51.448;7.646;2023-04-25T10:28:56;9.63;;;2.40;;
5831;SDS011;50943;51.448;7.646;2023-04-25T10:31:25;8.17;;;2.10;;
5831;SDS011;50943;51.448;7.646;2023-04-25T10:33:51;9.93;;;2.60;;
5831;SDS011;50943;51.448;7.646;2023-04-25T10:36:18;7.23;;;2.00;;
5831;SDS011;50943;51.448;7.646;2023-04-25T10:38:47;11.20;;;2.63;;
5831;SDS011;50943;51.448;7.646;2023-04-25T10:41:17;5.40;;;1.73;;
5831;SDS011;50943;51.448;7.646;2023-04-25T10:43:44;6.53;;;2.30;;
5831;SDS011;50943;51.448;7.646;2023-04-25T10:46:17;4.90;;;2.00;;
5831;SDS011;50943;51.448;7.646;2023-04-25T10:48:47;6.13;;;1.83;;
5831;SDS011;50943;51.448;7.646;2023-04-25T10:51:16;8.50;;;1.97;;
5831;SDS011;50943;51.448;7.646;2023-04-25T10:53:44;6.50;;;2.20;;
5831;SDS011;50943;51.448;7.646;2023-04-25T10:56:11;4.93;;;1.80;;
5831;SDS011;50943;51.448;7.646;2023-04-25T10:58:41;5.10;;;1.70;;
5831;SDS011;50943;51.448;7.646;2023-04-25T11:01:09;3.33;;;1.47;;
5831;SDS011;50943;51.448;7.646;2023-04-25T11:03:38;8.83;;;2.00;;
5831;SDS011;50943;51.448;7.646;2023-04-25T11:06:12;5.87;;;2.70;;
5831;SDS011;50943;51.448;7.646;2023-04-25T11:08:47;8.93;;;2.20;;
5831;SDS011;50943;51.448;7.646;2023-04-25T11:11:14;5.10;;;1.67;;
5831;SDS011;50943;51.448;7.646;2023-04-25T11:13:41;5.67;;;1.90;;
5831;SDS011;50943;51.448;7.646;2023-04-25T11:16:08;6.60;;;1.77;;
5831;SDS011;50943;51.448;7.646;2023-04-25T11:18:34;5.67;;;1.87;;
5831;SDS011;50943;51.448;7.646;2023-04-25T11:21:02;10.37;;;2.23;;
5831;SDS011;50943;51.448;7.646;2023-04-25T11:23:30;6.80;;;1.77;;
5831;SDS011;50943;51.448;7.646;2023-04-25T11:25:57;9.10;;;1.53;;
5831;SDS011;50943;51.448;7.646;2023-04-25T11:28:25;7.33;;;2.00;;
5831;SDS011;50943;51.448;7.646;2023-04-25T11:30:52;5.50;;;2.27;;
5831;SDS011;50943;51.448;7.646;2023-04-25T11:33:22;5.23;;;1.60;;
5831;SDS011;50943;51.448;7.646;2023-04-25T11:35:49;7.80;;;1.60;;
5831;SDS011;50943;51.448;7.646;2023-04-25T11:38:16;8.30;;;1.63;;
5831;SDS011;50943;51.448;7.646;2023-04-25T11:40:44;4.23;;;2.20;;
5831;SDS011;50943;51.448;7.646;2023-04-25T11:43:11;10.40;;;1.50;;
5831;SDS011;50943;51.448;7.646;2023-04-25T11:45:38;7.83;;;1.60;;
5831;SDS011;50943;51.448;7.646;2023-04-25T11:48:05;6.57;;;1.50;;
5831;SDS011;50943;51.448;7.646;2023-04-25T11:50:31;3.70;;;1.30;;
5831;SDS011;50943;51.448;7.646;2023-04-25T11:52:58;7.03;;;1.90;;
5831;SDS011;50943;51.448;7.646;2023-04-25T11:55:25;6.50;;;1.50;;
5831;SDS011;50943;51.448;7.646;2023-04-25T11:57:53;8.93;;;1.60;;
5831;SDS011;50943;51.448;7.646;2023-04-25T12:00:20;6.00;;;1.40;;
5831;SDS011;50943;51.448;7.646;2023-04-25T12:02:50;5.20;;;1.53;;
5831;SDS011;50943;51.448;7.646;2023-04-25T12:05:19;4.50;;;1.60;;
5831;SDS011;50943;51.448;7.646;2023-04-25T12:07:46;4.93;;;1.47;;
5831;SDS011;50943;51.448;7.646;2023-04-25T12:10:13;6.90;;;1.80;;
5831;SDS011;50943;51.448;7.646;2023-04-25T12:12:44;4.83;;;1.30;;
5831;SDS011;50943;51.448;7.646;2023-04-25T12:15:14;4.20;;;1.40;;
5831;SDS011;50943;51.448;7.646;2023-04-25T12:17:44;2.53;;;1.27;;
5831;SDS011;50943;51.448;7.646;2023-04-25T12:20:13;4.00;;;1.23;;
5831;SDS011;50943;51.448;7.646;2023-04-25T12:22:40;5.67;;;1.40;;
5831;SDS011;50943;51.448;7.646;2023-04-25T12:25:09;3.60;;;1.27;;
5831;SDS011;50943;51.448;7.646;2023-04-25T12:27:37;3.40;;;0.90;;
5831;SDS011;50943;51.448;7.646;2023-04-25T12:30:05;5.13;;;1.10;;
5831;SDS011;50943;51.448;7.646;2023-04-25T12:32:34;3.60;;;1.30;;
5831;SDS011;50943;51.448;7.646;2023-04-25T12:35:01;3.00;;;1.00;;
5831;SDS011;50943;51.448;7.646;2023-04-25T12:37:28;2.77;;;0.93;;
5831;SDS011;50943;51.448;7.646;2023-04-25T12:39:55;6.53;;;0.93;;
5831;SDS011;50943;51.448;7.646;2023-04-25T12:42:22;2.80;;;1.17;;
5831;SDS011;50943;51.448;7.646;2023-04-25T12:44:49;3.53;;;1.33;;
5831;SDS011;50943;51.448;7.646;2023-04-25T12:47:15;2.37;;;1.00;;
5831;SDS011;50943;51.448;7.646;2023-04-25T12:49:43;3.43;;;1.10;;
5831;SDS011;50943;51.448;7.646;2023-04-25T12:52:10;4.37;;;1.10;;
5831;SDS011;50943;51.448;7.646;2023-04-25T12:54:36;4.63;;;1.33;;
5831;SDS011;50943;51.448;7.646;2023-04-25T12:57:03;4.80;;;1.13;;
5831;SDS011;50943;51.448;7.646;2023-04-25T12:59:30;3.70;;;1.00;;
5831;SDS011;50943;51.448;7.646;2023-04-25T13:01:56;3.13;;;1.10;;
5831;SDS011;50943;51.448;7.646;2023-04-25T13:04:23;2.03;;;1.13;;
5831;SDS011;50943;51.448;7.646;2023-04-25T13:06:51;3.43;;;1.17;;
5831;SDS011;50943;51.448;7.646;2023-04-25T13:09:17;2.33;;;0.93;;
5831;SDS011;50943;51.448;7.646;2023-04-25T13:11:45;2.70;;;1.10;;
5831;SDS011;50943;51.448;7.646;2023-04-25T13:14:12;7.10;;;3.20;;
5831;SDS011;50943;51.448;7.646;2023-04-25T13:16:38;3.13;;;1.13;;
5831;SDS011;50943;51.448;7.646;2023-04-25T13:19:06;5.37;;;1.20;;
5831;SDS011;50943;51.448;7.646;2023-04-25T13:21:36;4.40;;;1.10;;
5831;SDS011;50943;51.448;7.646;2023-04-25T13:24:04;3.83;;;1.30;;
5831;SDS011;50943;51.448;7.646;2023-04-25T13:26:31;5.63;;;1.43;;
5831;SDS011;50943;51.448;7.646;2023-04-25T13:28:57;6.50;;;1.30;;
5831;SDS011;50943;51.448;7.646;2023-04-25T13:31:25;4.27;;;1.00;;
5831;SDS011;50943;51.448;7.646;2023-04-25T13:33:52;3.60;;;1.00;;
5831;SDS011;50943;51.448;7.646;2023-04-25T13:36:19;3.53;;;1.10;;
5831;SDS011;50943;51.448;7.646;2023-04-25T13:38:48;6.63;;;1.53;;
5831;SDS011;50943;51.448;7.646;2023-04-25T13:41:16;3.80;;;0.93;;
5831;SDS011;50943;51.448;7.646;2023-04-25T13:43:44;3.20;;;1.20;;
5831;SDS011;50943;51.448;7.646;2023-04-25T13:46:12;4.37;;;0.90;;
5831;SDS011;50943;51.448;7.646;2023-04-25T13:48:40;2.70;;;1.00;;
5831;SDS011;50943;51.448;7.646;2023-04-25T13:51:14;2.67;;;1.10;;
5831;SDS011;50943;51.448;7.646;2023-04-25T13:53:43;5.83;;;1.20;;
5831;SDS011;50943;51.448;7.646;2023-04-25T13:56:12;2.47;;;1.10;;
5831;SDS011;50943;51.448;7.646;2023-04-25T13:58:40;6.47;;;1.10;;
5831;SDS011;50943;51.448;7.646;2023-04-25T14:01:06;4.00;;;1.17;;
5831;SDS011;50943;51.448;7.646;2023-04-25T14:03:33;4.30;;;1.13;;
5831;SDS011;50943;51.448;7.646;2023-04-25T14:06:00;3.00;;;1.00;;
5831;SDS011;50943;51.448;7.646;2023-04-25T14:08:28;4.93;;;1.27;;
5831;SDS011;50943;51.448;7.646;2023-04-25T14:10:54;6.43;;;1.33;;
5831;SDS011;50943;51.448;7.646;2023-04-25T14:13:21;2.77;;;1.30;;
5831;SDS011;50943;51.448;7.646;2023-04-25T14:15:49;6.47;;;1.50;;
5831;SDS011;50943;51.448;7.646;2023-04-25T14:18:16;7.40;;;1.40;;
5831;SDS011;50943;51.448;7.646;2023-04-25T14:20:43;5.77;;;1.73;;
5831;SDS011;50943;51.448;7.646;2023-04-25T14:23:10;6.33;;;1.20;;
5831;SDS011;50943;51.448;7.646;2023-04-25T14:25:37;5.10;;;1.53;;
5831;SDS011;50943;51.448;7.646;2023-04-25T14:28:03;5.27;;;1.30;;
5831;SDS011;50943;51.448;7.646;2023-04-25T14:30:30;4.03;;;1.30;;
5831;SDS011;50943;51.448;7.646;2023-04-25T14:32:58;6.50;;;1.20;;
5831;SDS011;50943;51.448;7.646;2023-04-25T14:35:25;4.77;;;1.20;;
5831;SDS011;50943;51.448;7.646;2023-04-25T14:37:52;2.47;;;1.10;;
5831;SDS011;50943;51.448;7.646;2023-04-25T14:40:19;4.10;;;1.27;;
5831;SDS011;50943;51.448;7.646;2023-04-25T14:42:48;5.73;;;1.37;;
5831;SDS011;50943;51.448;7.646;2023-04-25T14:45:14;5.80;;;1.27;;
5831;SDS011;50943;51.448;7.646;2023-04-25T14:47:41;3.10;;;1.13;;
5831;SDS011;50943;51.448;7.646;2023-04-25T14:50:09;3.60;;;1.40;;
5831;SDS011;50943;51.448;7.646;2023-04-25T14:52:38;5.20;;;1.40;;